Dixie Raider — WDC2675 — position and weather

sailwx.info

Track history (hours):
 
Tides and Currents Weather Stations Pressure Air Temp Water Temp Dewpoint Dewpoint Depression Visibility Wind Speed Wind Dir Waves Ship Positions

Dixie Raider

Owner: Kirby Inland Marine LP, Houston, TX. More information available from US FCC via Universal Licensing System and Coast Guard Vessel Documentation Center.

Last reported at 2018-Feb-24 11:12 UTC. Time now 2018-Feb-24 15:36 UTC.
Position N 29°43' W 095°01'.

Length 19 m; draft 2.8 m.

Type: . MMSI: 366996280.

Date/timePositionNaut miles runAvg speedWind from/ knotsBaromVisibWave heightAir tempDewpointWater temp
2018-Feb-24 11:12N 29°43' W 095°01'1 4.0
2018-Feb-24 11:00N 29°42' W 095°00'2 4.2
2018-Feb-24 10:29N 29°41' W 094°59'2 4.7
2018-Feb-24 10:00N 29°38' W 094°58'2 4.2
2018-Feb-24 09:30N 29°40' W 094°59'5 7.7
2018-Feb-24 08:55N 29°44' W 095°02'3 0.8
2018-Feb-24 05:29N 29°46' W 095°04'1 0.1
2018-Feb-23 19:42N 29°46' W 095°05'  
2018-Feb-20 02:17N 29°45' W 095°06'4 0.8
2018-Feb-19 21:16N 29°44' W 095°02'2 0.4
2018-Feb-19 17:26N 29°42' W 095°01'3 6.7
2018-Feb-19 17:00N 29°40' W 094°59'4 6.8
2018-Feb-19 16:26N 29°37' W 094°57'3 7.1
2018-Feb-19 16:00N 29°34' W 094°55'4 7.4
2018-Feb-19 15:28N 29°31' W 094°53'4 7.4
2018-Feb-19 14:59N 29°28' W 094°51'4 7.7
2018-Feb-19 14:30N 29°24' W 094°49'4 7.9
2018-Feb-19 13:59N 29°21' W 094°47'2 3.6
2018-Feb-19 13:24N 29°19' W 094°47'0 0.0
2018-Feb-19 09:32N 29°19' W 094°47'0 0.0
2018-Feb-19 09:23N 29°19' W 094°47'0 0.0
2018-Feb-19 08:59N 29°19' W 094°47'0 0.0
2018-Feb-19 07:47N 29°19' W 094°47'0 0.0
2018-Feb-19 07:25N 29°19' W 094°47'0 0.0
2018-Feb-19 06:52N 29°19' W 094°47'0 0.0
2018-Feb-19 06:19N 29°19' W 094°47'0 0.0
2018-Feb-19 05:34N 29°19' W 094°47'0 0.0
2018-Feb-19 05:19N 29°19' W 094°47'1 0.0
2018-Feb-17 23:00N 29°19' W 094°49'0 0.0
2018-Feb-17 22:00N 29°19' W 094°49'0 0.0
2018-Feb-17 21:30N 29°19' W 094°49'6 0.3
2018-Feb-17 01:58N 29°22' W 094°54'0 0.0
2018-Feb-17 01:10N 29°22' W 094°54'0 0.6
2018-Feb-17 00:48N 29°22' W 094°54'2 4.8
2018-Feb-17 00:23N 29°23' W 094°52'3 7.0
2018-Feb-16 23:58N 29°22' W 094°49'9 5.1
2018-Feb-16 22:13N 29°30' W 094°52'1 4.4
2018-Feb-16 22:00N 29°31' W 094°53'3 6.6
2018-Feb-16 21:30N 29°34' W 094°55'3 6.4
2018-Feb-16 21:00N 29°36' W 094°57'3 6.8
2018-Feb-16 20:30N 29°40' W 094°58'4 7.1
2018-Feb-16 19:59N 29°42' W 095°01'5 2.5
2018-Feb-16 17:58N 29°45' W 095°06'0 0.0
2018-Feb-16 07:35N 29°45' W 095°06'0 0.0
2018-Feb-16 07:29N 29°45' W 095°06'0 0.0
2018-Feb-16 07:00N 29°45' W 095°06'2 1.0
2018-Feb-16 04:51N 29°47' W 095°04'0 0.4
2018-Feb-16 04:29N 29°47' W 095°04'2 1.6
2018-Feb-16 02:57N 29°46' W 095°07'1 0.6
2018-Feb-16 01:36N 29°45' W 095°06'0 0.0
2018-Feb-15 19:35N 29°45' W 095°06'0 0.0
2018-Feb-15 08:04N 29°45' W 095°06'0 0.1
2018-Feb-15 07:58N 29°45' W 095°06'0 0.0
2018-Feb-15 07:25N 29°45' W 095°06'0 0.0
2018-Feb-15 06:43N 29°45' W 095°06'0 0.0
2018-Feb-15 06:25N 29°45' W 095°06'0 0.0
2018-Feb-15 05:55N 29°45' W 095°06'0 0.0
2018-Feb-15 05:26N 29°45' W 095°06'0 0.0
2018-Feb-15 05:00N 29°45' W 095°06'0 0.0
2018-Feb-15 04:30N 29°45' W 095°06'0 0.0
2018-Feb-15 03:58N 29°45' W 095°06'0 0.0
2018-Feb-15 03:29N 29°45' W 095°06'0 0.0
2018-Feb-15 02:58N 29°45' W 095°06'0 0.0
2018-Feb-15 02:29N 29°45' W 095°06'1 0.1
2018-Feb-14 17:11N 29°46' W 095°04'1 2.9
2018-Feb-14 16:46N 29°45' W 095°06'0 0.0
2018-Feb-14 16:21N 29°45' W 095°06'  
Track history (hours):
 
Tides and Currents Weather Stations Pressure Air Temp Water Temp Dewpoint Dewpoint Depression Visibility Wind Speed Wind Dir Waves Ship Positions

Dixie Raider

Owner: Kirby Inland Marine LP, Houston, TX. More information available from US FCC via Universal Licensing System and Coast Guard Vessel Documentation Center.

Last reported at 2018-Feb-24 11:12 UTC. Time now 2018-Feb-24 15:36 UTC.
Position N 29°43' W 095°01'.

Length 19 m; draft 2.8 m.

Type: . MMSI: 366996280.

Date/timePositionNaut miles runAvg speedWind from/ knotsBaromVisibWave heightAir tempDewpointWater temp
2018-Feb-24 11:12N 29°43' W 095°01'1 4.0
2018-Feb-24 11:00N 29°42' W 095°00'2 4.2
2018-Feb-24 10:29N 29°41' W 094°59'2 4.7
2018-Feb-24 10:00N 29°38' W 094°58'2 4.2
2018-Feb-24 09:30N 29°40' W 094°59'5 7.7
2018-Feb-24 08:55N 29°44' W 095°02'3 0.8
2018-Feb-24 05:29N 29°46' W 095°04'1 0.1
2018-Feb-23 19:42N 29°46' W 095°05'  
2018-Feb-20 02:17N 29°45' W 095°06'4 0.8
2018-Feb-19 21:16N 29°44' W 095°02'2 0.4
2018-Feb-19 17:26N 29°42' W 095°01'3 6.7
2018-Feb-19 17:00N 29°40' W 094°59'4 6.8
2018-Feb-19 16:26N 29°37' W 094°57'3 7.1
2018-Feb-19 16:00N 29°34' W 094°55'4 7.4
2018-Feb-19 15:28N 29°31' W 094°53'4 7.4
2018-Feb-19 14:59N 29°28' W 094°51'4 7.7
2018-Feb-19 14:30N 29°24' W 094°49'4 7.9
2018-Feb-19 13:59N 29°21' W 094°47'2 3.6
2018-Feb-19 13:24N 29°19' W 094°47'0 0.0
2018-Feb-19 09:32N 29°19' W 094°47'0 0.0
2018-Feb-19 09:23N 29°19' W 094°47'0 0.0
2018-Feb-19 08:59N 29°19' W 094°47'0 0.0
2018-Feb-19 07:47N 29°19' W 094°47'0 0.0
2018-Feb-19 07:25N 29°19' W 094°47'0 0.0
2018-Feb-19 06:52N 29°19' W 094°47'0 0.0
2018-Feb-19 06:19N 29°19' W 094°47'0 0.0
2018-Feb-19 05:34N 29°19' W 094°47'0 0.0
2018-Feb-19 05:19N 29°19' W 094°47'1 0.0
2018-Feb-17 23:00N 29°19' W 094°49'0 0.0
2018-Feb-17 22:00N 29°19' W 094°49'0 0.0
2018-Feb-17 21:30N 29°19' W 094°49'6 0.3
2018-Feb-17 01:58N 29°22' W 094°54'0 0.0
2018-Feb-17 01:10N 29°22' W 094°54'0 0.6
2018-Feb-17 00:48N 29°22' W 094°54'2 4.8
2018-Feb-17 00:23N 29°23' W 094°52'3 7.0
2018-Feb-16 23:58N 29°22' W 094°49'9 5.1
2018-Feb-16 22:13N 29°30' W 094°52'1 4.4
2018-Feb-16 22:00N 29°31' W 094°53'3 6.6
2018-Feb-16 21:30N 29°34' W 094°55'3 6.4
2018-Feb-16 21:00N 29°36' W 094°57'3 6.8
2018-Feb-16 20:30N 29°40' W 094°58'4 7.1
2018-Feb-16 19:59N 29°42' W 095°01'5 2.5
2018-Feb-16 17:58N 29°45' W 095°06'0 0.0
2018-Feb-16 07:35N 29°45' W 095°06'0 0.0
2018-Feb-16 07:29N 29°45' W 095°06'0 0.0
2018-Feb-16 07:00N 29°45' W 095°06'2 1.0
2018-Feb-16 04:51N 29°47' W 095°04'0 0.4
2018-Feb-16 04:29N 29°47' W 095°04'2 1.6
2018-Feb-16 02:57N 29°46' W 095°07'1 0.6
2018-Feb-16 01:36N 29°45' W 095°06'0 0.0
2018-Feb-15 19:35N 29°45' W 095°06'0 0.0
2018-Feb-15 08:04N 29°45' W 095°06'0 0.1
2018-Feb-15 07:58N 29°45' W 095°06'0 0.0
2018-Feb-15 07:25N 29°45' W 095°06'0 0.0
2018-Feb-15 06:43N 29°45' W 095°06'0 0.0
2018-Feb-15 06:25N 29°45' W 095°06'0 0.0
2018-Feb-15 05:55N 29°45' W 095°06'0 0.0
2018-Feb-15 05:26N 29°45' W 095°06'0 0.0
2018-Feb-15 05:00N 29°45' W 095°06'0 0.0
2018-Feb-15 04:30N 29°45' W 095°06'0 0.0
2018-Feb-15 03:58N 29°45' W 095°06'0 0.0
2018-Feb-15 03:29N 29°45' W 095°06'0 0.0
2018-Feb-15 02:58N 29°45' W 095°06'0 0.0
2018-Feb-15 02:29N 29°45' W 095°06'1 0.1
2018-Feb-14 17:11N 29°46' W 095°04'1 2.9
2018-Feb-14 16:46N 29°45' W 095°06'0 0.0
2018-Feb-14 16:21N 29°45' W 095°06'  

Dump ship's entire track history